Time;durP1;ratioP1;P1;durP2;ratioP2;P2;SDS_P1;SDS_P2;PMS_P1;PMS_P2;Temp;Humidity;BMP_temperature;BMP_pressure;BME280_temperature;BME280_humidity;BME280_pressure;Samples;Min_cycle;Max_cycle;Signal;HPM_P1;HPM_P2
2020/12/20 00:00:13;;;;;;;3.75;2.17;;;9.30;91.60;;;;;;2051498;28;20122;-80
2020/12/20 00:01:14;;;;;;;4.15;2.30;;;9.30;91.60;;;;;;2052354;28;20023;-80
2020/12/20 00:02:15;;;;;;;4.43;2.45;;;9.30;91.60;;;;;;2046912;28;20066;-80
2020/12/20 00:03:16;;;;;;;4.03;2.30;;;9.30;91.60;;;;;;2049273;28;20026;-80
2020/12/20 00:04:17;;;;;;;3.78;2.20;;;9.30;91.60;;;;;;2054081;28;20079;-80
2020/12/20 00:05:20;;;;;;;3.25;1.90;;;9.30;91.60;;;;;;2046360;29;20031;-80
2020/12/20 00:06:21;;;;;;;4.22;1.90;;;9.30;91.60;;;;;;2049390;28;20492;-80
2020/12/20 00:07:21;;;;;;;3.78;2.00;;;9.30;91.60;;;;;;2049089;28;20118;-80
2020/12/20 00:08:23;;;;;;;3.13;1.90;;;9.40;91.60;;;;;;2048895;28;20027;-79
2020/12/20 00:09:23;;;;;;;4.55;2.30;;;9.40;91.60;;;;;;2034941;29;20036;-80
2020/12/20 00:10:24;;;;;;;3.47;1.90;;;9.30;91.60;;;;;;2044514;28;20070;-80
2020/12/20 00:11:25;;;;;;;5.13;2.28;;;9.30;91.60;;;;;;2054752;28;20031;-80
2020/12/20 00:12:26;;;;;;;3.78;1.80;;;9.30;91.50;;;;;;2051350;28;20054;-80
2020/12/20 00:13:26;;;;;;;5.85;2.00;;;9.40;91.60;;;;;;2049368;28;20062;-80
2020/12/20 00:14:27;;;;;;;2.97;1.90;;;9.30;91.50;;;;;;2049789;28;20031;-80
2020/12/20 00:15:28;;;;;;;3.83;1.88;;;9.40;91.60;;;;;;2047023;28;20023;-80
2020/12/20 00:16:31;;;;;;;2.38;1.70;;;9.40;91.60;;;;;;2040877;29;20526;-80
2020/12/20 00:17:32;;;;;;;3.83;2.10;;;9.30;91.50;;;;;;2049604;28;20031;-80
2020/12/20 00:18:33;;;;;;;3.53;1.83;;;9.40;91.80;;;;;;2049896;28;20122;-80
2020/12/20 00:19:34;;;;;;;3.95;1.88;;;9.40;91.60;;;;;;2049302;28;20043;-80
2020/12/20 00:20:35;;;;;;;4.35;1.98;;;9.30;91.50;;;;;;2040554;29;20416;-80
2020/12/20 00:21:36;;;;;;;5.10;2.40;;;9.30;91.50;;;;;;2055724;28;20042;-81
2020/12/20 00:22:36;;;;;;;4.05;2.17;;;9.30;91.50;;;;;;2050490;28;20518;-80
2020/12/20 00:23:37;;;;;;;3.95;2.15;;;9.30;91.60;;;;;;2050176;28;20038;-80
2020/12/20 00:24:38;;;;;;;4.32;2.17;;;9.30;91.50;;;;;;2049553;28;20513;-80
2020/12/20 00:25:39;;;;;;;4.05;1.90;;;9.30;91.60;;;;;;2048493;28;20431;-81
2020/12/20 00:26:43;;;;;;;3.38;1.80;;;9.40;91.60;;;;;;2032819;29;20036;-81
2020/12/20 00:27:44;;;;;;;3.38;2.00;;;9.40;91.60;;;;;;2037340;28;20042;-81
2020/12/20 00:28:44;;;;;;;3.78;1.92;;;9.40;91.60;;;;;;2048440;29;20027;-80
2020/12/20 00:29:45;;;;;;;3.50;1.83;;;9.30;91.50;;;;;;2048281;28;20090;-81
2020/12/20 00:30:45;;;;;;;3.63;1.80;;;9.30;91.60;;;;;;2048787;28;20126;-81
2020/12/20 00:31:46;;;;;;;3.35;1.70;;;9.40;91.60;;;;;;2049459;28;20035;-81
2020/12/20 00:32:47;;;;;;;3.08;1.75;;;9.40;91.60;;;;;;2064447;28;20038;-81
2020/12/20 00:33:47;;;;;;;3.17;1.80;;;9.30;91.60;;;;;;2048855;28;20043;-81
2020/12/20 00:34:48;;;;;;;4.55;1.90;;;9.30;91.60;;;;;;2040474;29;20039;-81
2020/12/20 00:35:49;;;;;;;3.33;1.90;;;9.40;91.60;;;;;;2038999;29;20030;-81
2020/12/20 00:36:50;;;;;;;3.35;1.70;;;9.30;91.60;;;;;;2040844;29;20478;-81
2020/12/20 00:37:50;;;;;;;3.85;1.90;;;9.30;91.60;;;;;;2049591;28;20494;-81
2020/12/20 00:38:51;;;;;;;5.70;2.28;;;9.40;91.70;;;;;;2059414;28;20035;-81
2020/12/20 00:39:53;;;;;;;4.63;1.95;;;9.30;91.60;;;;;;2064630;28;20034;-81
2020/12/20 00:40:54;;;;;;;2.78;1.80;;;9.30;91.60;;;;;;2055634;28;20037;-81
2020/12/20 00:41:57;;;;;;;5.07;2.25;;;9.30;91.60;;;;;;2048986;28;20076;-81
2020/12/20 00:42:57;;;;;;;3.28;1.90;;;9.30;91.60;;;;;;2051403;28;20053;-81
2020/12/20 00:43:58;;;;;;;3.90;2.08;;;9.40;91.70;;;;;;2050073;28;20031;-81
2020/12/20 00:44:59;;;;;;;3.88;1.90;;;9.40;91.60;;;;;;2055769;28;20509;-81
2020/12/20 00:45:59;;;;;;;3.85;2.00;;;9.30;91.60;;;;;;2048468;28;20071;-81
2020/12/20 00:47:03;;;;;;;3.47;1.95;;;9.40;91.60;;;;;;2054007;28;20031;-81
2020/12/20 00:48:03;;;;;;;3.83;1.90;;;9.30;91.60;;;;;;2055140;28;20037;-81
2020/12/20 00:49:04;;;;;;;3.67;1.90;;;9.40;91.60;;;;;;2050272;28;20057;-81
2020/12/20 00:50:05;;;;;;;3.53;1.80;;;9.40;91.60;;;;;;2046672;28;20020;-81
2020/12/20 00:51:06;;;;;;;2.80;1.83;;;9.40;91.60;;;;;;2053622;28;20509;-81
2020/12/20 00:52:07;;;;;;;3.10;1.80;;;9.30;91.60;;;;;;2051046;28;20031;-81
2020/12/20 00:53:08;;;;;;;2.97;1.77;;;9.30;91.90;;;;;;2048536;28;20040;-81
2020/12/20 00:54:09;;;;;;;3.58;1.88;;;9.40;91.60;;;;;;2048999;28;20027;-80
2020/12/20 00:55:09;;;;;;;3.22;1.73;;;9.40;91.60;;;;;;2053296;28;20022;-81
2020/12/20 00:56:13;;;;;;;2.83;1.63;;;9.30;91.60;;;;;;2053029;28;20035;-81
2020/12/20 00:57:14;;;;;;;3.88;1.80;;;9.30;91.60;;;;;;2046182;29;20035;-80
2020/12/20 00:58:15;;;;;;;3.45;1.67;;;9.30;91.60;;;;;;2040800;29;20024;-80
2020/12/20 00:59:15;;;;;;;3.40;1.80;;;9.30;91.70;;;;;;2056755;28;20062;-80
2020/12/20 01:00:16;;;;;;;4.45;1.90;;;9.30;91.60;;;;;;2054064;28;20023;-80
2020/12/20 01:01:17;;;;;;;3.53;1.90;;;9.30;91.70;;;;;;2045419;29;20118;-81
2020/12/20 01:02:17;;;;;;;3.55;2.00;;;9.30;91.60;;;;;;2044423;28;20023;-80
2020/12/20 01:03:18;;;;;;;3.60;1.83;;;9.30;91.60;;;;;;2048024;28;20059;-81
2020/12/20 01:04:19;;;;;;;3.92;1.90;;;9.30;91.60;;;;;;2047541;28;20032;-80
2020/12/20 01:05:19;;;;;;;4.78;2.00;;;9.30;91.60;;;;;;2047205;28;20510;-81
2020/12/20 01:06:22;;;;;;;3.22;1.70;;;9.30;91.60;;;;;;2048391;28;20521;-80
2020/12/20 01:07:22;;;;;;;3.00;1.90;;;9.40;91.70;;;;;;2047713;28;20035;-81
2020/12/20 01:08:24;;;;;;;4.18;1.83;;;9.30;91.90;;;;;;2044103;28;20027;-81
2020/12/20 01:09:25;;;;;;;2.88;1.75;;;9.40;91.60;;;;;;2041107;29;20538;-81
2020/12/20 01:10:26;;;;;;;3.70;1.80;;;9.30;91.60;;;;;;2045353;28;20030;-80
2020/12/20 01:11:27;;;;;;;4.32;1.70;;;9.30;91.60;;;;;;2040432;29;20406;-81
2020/12/20 01:12:28;;;;;;;2.70;1.67;;;9.30;91.60;;;;;;2040856;29;20028;-81
2020/12/20 01:13:29;;;;;;;4.32;1.90;;;9.30;91.60;;;;;;2052983;28;20034;-81
2020/12/20 01:14:29;;;;;;;3.85;1.80;;;9.30;91.60;;;;;;2056771;28;20393;-80
2020/12/20 01:15:30;;;;;;;4.15;2.15;;;9.30;91.60;;;;;;2050202;28;20031;-80
2020/12/20 01:16:31;;;;;;;3.60;1.90;;;9.30;91.60;;;;;;2052242;28;20030;-80
2020/12/20 01:17:31;;;;;;;4.20;1.60;;;9.30;91.60;;;;;;2056830;28;20416;-80
2020/12/20 01:18:32;;;;;;;3.65;1.85;;;9.30;91.60;;;;;;2056605;28;20034;-80
2020/12/20 01:19:33;;;;;;;3.25;1.88;;;9.30;91.60;;;;;;2048663;28;20221;-80
2020/12/20 01:20:33;;;;;;;3.10;1.73;;;9.30;91.60;;;;;;2045320;28;20035;-80
2020/12/20 01:21:34;;;;;;;4.55;1.90;;;9.40;91.70;;;;;;2044891;28;20039;-81
2020/12/20 01:22:35;;;;;;;3.35;1.70;;;9.30;91.60;;;;;;2051733;28;20363;-80
2020/12/20 01:23:35;;;;;;;3.35;1.80;;;9.30;91.90;;;;;;2059118;28;20485;-81
2020/12/20 01:24:36;;;;;;;3.88;1.58;;;9.30;91.70;;;;;;2064756;28;20026;-81
2020/12/20 01:25:37;;;;;;;3.80;1.75;;;9.30;91.60;;;;;;2054783;28;20030;-81
2020/12/20 01:26:37;;;;;;;4.07;1.83;;;9.30;91.60;;;;;;2052150;28;20042;-81
2020/12/20 01:27:38;;;;;;;3.35;1.80;;;9.30;91.60;;;;;;2051777;28;20043;-80
2020/12/20 01:28:39;;;;;;;4.18;1.80;;;9.30;91.70;;;;;;2051563;28;20040;-81
2020/12/20 01:29:39;;;;;;;3.55;1.83;;;9.30;91.70;;;;;;2048639;28;20478;-81
2020/12/20 01:30:40;;;;;;;3.78;1.90;;;9.30;91.70;;;;;;2051967;28;20118;-80
2020/12/20 01:31:40;;;;;;;3.35;1.60;;;9.30;91.70;;;;;;2056190;28;20035;-81
2020/12/20 01:32:41;;;;;;;3.53;1.90;;;9.30;91.70;;;;;;2051175;28;20031;-81
2020/12/20 01:33:42;;;;;;;4.60;1.88;;;9.30;91.70;;;;;;2052446;28;20069;-81
2020/12/20 01:34:43;;;;;;;3.35;1.80;;;9.30;91.70;;;;;;2055552;28;20023;-81
2020/12/20 01:35:43;;;;;;;3.42;1.75;;;9.30;91.70;;;;;;2043430;28;20470;-81
2020/12/20 01:36:44;;;;;;;4.63;2.00;;;9.30;91.70;;;;;;2037173;29;20031;-80
2020/12/20 01:37:45;;;;;;;4.38;1.90;;;9.30;91.70;;;;;;2046022;29;20353;-81
2020/12/20 01:38:45;;;;;;;6.32;2.17;;;9.30;91.70;;;;;;2054849;28;20031;-81
2020/12/20 01:39:46;;;;;;;4.32;1.95;;;9.30;91.70;;;;;;2051627;28;20041;-81
2020/12/20 01:40:53;;;;;;;4.72;2.10;;;9.30;91.90;;;;;;2048496;28;20099;-81
2020/12/20 01:41:54;;;;;;;3.75;1.77;;;9.30;91.60;;;;;;2045170;28;20485;-81
2020/12/20 01:42:55;;;;;;;5.10;1.70;;;9.30;91.60;;;;;;2039725;29;20059;-81
2020/12/20 01:43:56;;;;;;;3.35;1.80;;;9.30;91.60;;;;;;2042155;29;20031;-81
2020/12/20 01:44:57;;;;;;;2.78;1.60;;;9.30;91.60;;;;;;2039365;29;20028;-81
2020/12/20 01:45:58;;;;;;;4.90;1.80;;;9.30;91.90;;;;;;2043288;28;20055;-80
2020/12/20 01:47:00;;;;;;;4.88;1.80;;;9.30;91.60;;;;;;2055351;28;20023;-80
2020/12/20 01:48:03;;;;;;;4.47;1.95;;;9.30;91.60;;;;;;2066416;28;20089;-80
2020/12/20 01:49:03;;;;;;;2.78;1.70;;;9.30;91.60;;;;;;2059692;28;20031;-81
2020/12/20 01:50:04;;;;;;;3.30;1.60;;;9.30;91.60;;;;;;2051042;28;20103;-80
2020/12/20 01:51:06;;;;;;;3.13;1.38;;;9.30;91.70;;;;;;2053972;28;20026;-80
2020/12/20 01:52:07;;;;;;;4.40;2.00;;;9.30;91.60;;;;;;2050269;28;20379;-81
2020/12/20 01:53:10;;;;;;;3.53;1.60;;;9.30;91.60;;;;;;2043499;29;20050;-82
2020/12/20 01:54:11;;;;;;;3.15;1.70;;;9.30;91.70;;;;;;2051287;28;20039;-80
2020/12/20 01:55:12;;;;;;;4.45;1.60;;;9.30;91.60;;;;;;2056538;28;20218;-81
2020/12/20 01:56:13;;;;;;;3.20;1.70;;;9.30;91.60;;;;;;2053724;28;20449;-81
2020/12/20 01:57:14;;;;;;;3.35;1.67;;;9.30;91.60;;;;;;2058992;28;20125;-81
2020/12/20 01:58:14;;;;;;;3.80;1.70;;;9.30;91.60;;;;;;2053114;28;20024;-79
2020/12/20 01:59:15;;;;;;;2.63;1.77;;;9.40;91.60;;;;;;2053483;28;20028;-81
2020/12/20 02:00:16;;;;;;;3.42;1.80;;;9.40;91.60;;;;;;2048203;29;20030;-80
2020/12/20 02:01:16;;;;;;;4.55;1.70;;;9.30;91.60;;;;;;2048992;29;20028;-80
2020/12/20 02:02:17;;;;;;;3.65;1.60;;;9.30;91.60;;;;;;2061765;28;20456;-80
2020/12/20 02:03:18;;;;;;;3.17;1.60;;;9.40;91.60;;;;;;2059860;28;20027;-80
2020/12/20 02:04:19;;;;;;;3.15;1.70;;;9.40;91.60;;;;;;2050687;28;20121;-80
2020/12/20 02:05:20;;;;;;;3.47;1.60;;;9.30;91.60;;;;;;2050403;28;20032;-81
2020/12/20 02:06:20;;;;;;;2.92;1.50;;;9.40;91.60;;;;;;2046678;28;20027;-80
2020/12/20 02:07:21;;;;;;;3.05;1.48;;;9.40;91.60;;;;;;2040324;29;20036;-80
2020/12/20 02:08:22;;;;;;;3.03;1.73;;;9.40;91.60;;;;;;2046468;29;20023;-80
2020/12/20 02:09:22;;;;;;;3.42;1.50;;;9.40;91.60;;;;;;2041559;28;20502;-80
2020/12/20 02:10:23;;;;;;;3.67;1.67;;;9.30;91.60;;;;;;2046309;29;20482;-80
2020/12/20 02:11:23;;;;;;;4.15;1.75;;;9.30;91.60;;;;;;2056211;28;20027;-80
2020/12/20 02:12:27;;;;;;;3.45;1.52;;;9.30;91.60;;;;;;2046446;29;20035;-81
2020/12/20 02:13:27;;;;;;;4.65;2.10;;;9.30;91.60;;;;;;2055518;28;20015;-81
2020/12/20 02:14:28;;;;;;;3.03;1.50;;;9.30;91.60;;;;;;2046658;29;20031;-81
2020/12/20 02:15:29;;;;;;;3.40;1.60;;;9.30;91.60;;;;;;2048603;29;20461;-80
2020/12/20 02:16:30;;;;;;;2.25;1.45;;;9.30;91.60;;;;;;2056950;28;20049;-80
2020/12/20 02:17:30;;;;;;;3.83;1.63;;;9.30;91.90;;;;;;2050523;28;20494;-81
2020/12/20 02:18:31;;;;;;;4.18;1.50;;;9.30;91.60;;;;;;2056807;28;20031;-82
2020/12/20 02:19:32;;;;;;;3.47;1.50;;;9.30;91.60;;;;;;2057674;28;20035;-80
2020/12/20 02:20:32;;;;;;;3.40;1.65;;;9.30;91.60;;;;;;2062933;28;20031;-81
2020/12/20 02:21:33;;;;;;;3.83;1.60;;;9.30;91.60;;;;;;2051647;29;20032;-80
2020/12/20 02:22:34;;;;;;;3.13;1.52;;;9.30;91.60;;;;;;2054938;28;20608;-81
2020/12/20 02:23:41;;;;;;;3.28;1.55;;;9.30;91.60;;;;;;2037902;28;20052;-81
2020/12/20 02:24:45;;;;;;;2.92;1.48;;;9.30;91.60;;;;;;2039430;28;20063;-80
2020/12/20 02:25:45;;;;;;;3.63;1.77;;;9.30;91.60;;;;;;2054696;28;20125;-80
2020/12/20 02:26:46;;;;;;;4.35;1.70;;;9.30;91.60;;;;;;2047953;28;20031;-81
2020/12/20 02:27:47;;;;;;;3.20;1.60;;;9.30;91.60;;;;;;2048075;29;20128;-80
2020/12/20 02:28:52;;;;;;;3.70;1.70;;;9.30;91.60;;;;;;2055471;28;20068;-80
2020/12/20 02:29:53;;;;;;;3.03;1.50;;;9.30;91.80;;;;;;2040982;29;20075;-81
2020/12/20 02:30:53;;;;;;;3.75;1.60;;;9.30;91.60;;;;;;2048303;29;20116;-80
2020/12/20 02:31:54;;;;;;;2.88;1.60;;;9.30;91.70;;;;;;2056195;28;20417;-80
2020/12/20 02:32:54;;;;;;;5.40;2.00;;;9.30;91.70;;;;;;2048668;28;20059;-81
2020/12/20 02:33:56;;;;;;;5.05;1.88;;;9.30;91.70;;;;;;2047715;29;20031;-80
2020/12/20 02:34:57;;;;;;;4.47;1.73;;;9.30;91.70;;;;;;2047791;28;20516;-80
2020/12/20 02:35:58;;;;;;;3.75;1.73;;;9.30;91.70;;;;;;2041320;29;20034;-80
2020/12/20 02:36:58;;;;;;;3.97;1.70;;;9.30;91.70;;;;;;2047325;28;20390;-81
2020/12/20 02:37:59;;;;;;;2.90;1.30;;;9.30;91.70;;;;;;2046950;29;20023;-80
2020/12/20 02:39:00;;;;;;;2.72;1.70;;;9.30;91.70;;;;;;2046865;29;20039;-80
2020/12/20 02:40:00;;;;;;;3.67;1.50;;;9.30;91.70;;;;;;2054232;28;20027;-80
2020/12/20 02:41:01;;;;;;;3.45;1.73;;;9.30;91.70;;;;;;2042189;29;20032;-80
2020/12/20 02:42:02;;;;;;;3.53;1.75;;;9.30;91.70;;;;;;2041514;28;20398;-80
2020/12/20 02:43:02;;;;;;;3.80;1.60;;;9.30;91.70;;;;;;2045868;28;20120;-81
2020/12/20 02:44:03;;;;;;;2.72;1.63;;;9.30;91.70;;;;;;2047077;29;20453;-81
2020/12/20 02:45:04;;;;;;;4.75;1.83;;;9.30;91.70;;;;;;2050255;28;20030;-80
2020/12/20 02:46:05;;;;;;;3.08;1.40;;;9.20;91.70;;;;;;2048652;28;20036;-81
2020/12/20 02:47:09;;;;;;;3.45;1.30;;;9.20;91.70;;;;;;2047358;28;20460;-81
2020/12/20 02:48:09;;;;;;;2.60;1.63;;;9.20;91.70;;;;;;2041719;29;20039;-81
2020/12/20 02:49:10;;;;;;;2.83;1.40;;;9.20;91.70;;;;;;2048823;28;20401;-80
2020/12/20 02:50:11;;;;;;;3.53;1.70;;;9.20;91.70;;;;;;2048266;28;20031;-81
2020/12/20 02:51:12;;;;;;;3.30;1.85;;;9.20;91.70;;;;;;2048182;28;20327;-81
2020/12/20 02:52:13;;;;;;;4.50;1.73;;;9.20;91.70;;;;;;2046442;28;20054;-82
2020/12/20 02:53:13;;;;;;;2.85;1.50;;;9.20;91.70;;;;;;2047043;28;20043;-81
2020/12/20 02:54:14;;;;;;;4.32;1.85;;;9.20;91.70;;;;;;2053888;28;20019;-81
2020/12/20 02:55:15;;;;;;;2.47;1.35;;;9.20;91.80;;;;;;2053500;28;20034;-81
2020/12/20 02:56:19;;;;;;;2.90;1.60;;;9.20;91.80;;;;;;2039205;29;20083;-81
2020/12/20 02:57:20;;;;;;;3.58;1.83;;;9.20;91.80;;;;;;2033293;29;20141;-81
2020/12/20 02:58:20;;;;;;;3.63;1.75;;;9.20;91.80;;;;;;2040666;29;20094;-81
2020/12/20 02:59:21;;;;;;;3.28;1.73;;;9.20;91.80;;;;;;2047851;28;20035;-81
2020/12/20 03:00:22;;;;;;;2.70;1.50;;;9.20;91.80;;;;;;2040272;29;20032;-81
2020/12/20 03:01:22;;;;;;;2.50;1.60;;;9.20;92.10;;;;;;2054488;28;20026;-81
2020/12/20 03:02:23;;;;;;;3.17;1.58;;;9.20;91.80;;;;;;2056010;28;20049;-81
2020/12/20 03:03:24;;;;;;;5.65;1.77;;;9.20;91.80;;;;;;2050431;28;20456;-81
2020/12/20 03:04:24;;;;;;;3.65;1.70;;;9.20;91.80;;;;;;2045745;29;20031;-81
2020/12/20 03:05:25;;;;;;;4.25;1.60;;;9.20;92.10;;;;;;2026395;29;20029;-80
2020/12/20 03:06:25;;;;;;;2.92;1.70;;;9.20;91.80;;;;;;2040210;29;20031;-81
2020/12/20 03:07:26;;;;;;;2.60;1.50;;;9.20;91.80;;;;;;2039512;29;20039;-81
2020/12/20 03:08:27;;;;;;;3.10;1.67;;;9.20;91.80;;;;;;2030209;29;20035;-81
2020/12/20 03:09:27;;;;;;;3.10;1.45;;;9.20;91.80;;;;;;2045978;28;20024;-81
2020/12/20 03:10:28;;;;;;;2.75;1.45;;;9.20;91.80;;;;;;2053910;28;20027;-81
2020/12/20 03:11:29;;;;;;;3.92;1.65;;;9.20;91.80;;;;;;2047093;28;20031;-80
2020/12/20 03:12:29;;;;;;;4.43;1.73;;;9.20;91.80;;;;;;2047687;29;20033;-81
2020/12/20 03:13:30;;;;;;;3.45;1.65;;;9.20;91.80;;;;;;2051393;28;20125;-80
2020/12/20 03:14:30;;;;;;;3.30;1.67;;;9.20;91.80;;;;;;2054260;28;20027;-80
2020/12/20 03:15:32;;;;;;;3.35;1.60;;;9.20;91.80;;;;;;2037180;29;20558;-80
2020/12/20 03:16:32;;;;;;;3.40;1.70;;;9.20;91.80;;;;;;2045891;29;20105;-80
2020/12/20 03:17:33;;;;;;;4.72;1.70;;;9.20;91.80;;;;;;2053704;28;20445;-80
2020/12/20 03:18:33;;;;;;;3.22;1.90;;;9.20;91.80;;;;;;2043789;28;20119;-80
2020/12/20 03:19:34;;;;;;;4.13;1.63;;;9.20;91.80;;;;;;2038714;29;20024;-81
2020/12/20 03:20:35;;;;;;;3.83;1.70;;;9.20;91.80;;;;;;2049628;28;20530;-80
2020/12/20 03:21:36;;;;;;;5.20;2.03;;;9.20;91.80;;;;;;2051972;28;20035;-80
2020/12/20 03:22:37;;;;;;;2.45;1.50;;;9.20;91.70;;;;;;2047317;29;20476;-80
2020/12/20 03:23:37;;;;;;;3.13;1.50;;;9.20;91.70;;;;;;2041244;29;20036;-81
2020/12/20 03:24:38;;;;;;;3.53;1.45;;;9.20;91.70;;;;;;2049540;28;20512;-81
2020/12/20 03:25:38;;;;;;;4.65;2.05;;;9.20;92.00;;;;;;2049934;28;20528;-81
2020/12/20 03:26:39;;;;;;;3.65;1.73;;;9.20;91.70;;;;;;2051850;28;20153;-81
2020/12/20 03:27:40;;;;;;;4.40;1.67;;;9.20;91.70;;;;;;2049072;29;20039;-80
2020/12/20 03:28:40;;;;;;;3.17;1.60;;;9.20;91.70;;;;;;2048801;28;20043;-81
2020/12/20 03:29:41;;;;;;;4.47;1.70;;;9.20;91.70;;;;;;2041465;29;20047;-81
2020/12/20 03:30:41;;;;;;;3.55;1.50;;;9.20;91.70;;;;;;2040603;29;20461;-80
2020/12/20 03:31:42;;;;;;;3.38;1.48;;;9.20;91.70;;;;;;2040128;29;20035;-81
2020/12/20 03:32:43;;;;;;;3.15;1.75;;;9.30;91.70;;;;;;2035646;29;20036;-81
2020/12/20 03:33:43;;;;;;;3.25;1.50;;;9.30;91.70;;;;;;2040504;29;20069;-81
2020/12/20 03:34:44;;;;;;;3.10;1.65;;;9.30;91.70;;;;;;2049162;29;20019;-81
2020/12/20 03:35:44;;;;;;;3.67;1.60;;;9.30;91.70;;;;;;2053786;28;20047;-81
2020/12/20 03:36:45;;;;;;;3.10;1.60;;;9.30;91.70;;;;;;2051882;28;20036;-80
2020/12/20 03:37:52;;;;;;;3.22;1.40;;;9.30;91.70;;;;;;2046407;29;20102;-81
2020/12/20 03:38:53;;;;;;;3.13;1.60;;;9.30;91.70;;;;;;2050013;28;20090;-81
2020/12/20 03:39:53;;;;;;;4.32;1.70;;;9.30;91.70;;;;;;2057507;28;20039;-81
2020/12/20 03:40:54;;;;;;;2.88;1.40;;;9.30;91.70;;;;;;2056118;28;20027;-81
2020/12/20 03:41:55;;;;;;;3.58;1.52;;;9.30;91.70;;;;;;2045989;28;20049;-81
2020/12/20 03:42:55;;;;;;;3.53;1.50;;;9.30;91.70;;;;;;2045975;29;20031;-81
2020/12/20 03:43:56;;;;;;;3.65;1.60;;;9.30;91.70;;;;;;2041415;29;20039;-81
2020/12/20 03:44:56;;;;;;;4.60;1.60;;;9.30;91.70;;;;;;2055798;28;20030;-80
2020/12/20 03:45:59;;;;;;;3.25;1.40;;;9.30;91.70;;;;;;2060685;28;20165;-81
2020/12/20 03:46:59;;;;;;;2.80;1.40;;;9.30;91.70;;;;;;2057361;28;20085;-81
2020/12/20 03:48:00;;;;;;;3.95;1.35;;;9.30;91.70;;;;;;2041135;29;20498;-81
2020/12/20 03:49:01;;;;;;;4.00;1.55;;;9.30;91.70;;;;;;2048817;29;20082;-81
2020/12/20 03:50:02;;;;;;;2.50;1.45;;;9.30;91.70;;;;;;2042830;28;20032;-81
2020/12/20 03:51:03;;;;;;;2.67;1.50;;;9.30;91.70;;;;;;2047647;28;20062;-81
2020/12/20 03:52:04;;;;;;;3.53;1.58;;;9.30;91.70;;;;;;2053139;28;20058;-81
2020/12/20 03:53:04;;;;;;;3.47;1.38;;;9.30;91.70;;;;;;2055416;28;20641;-81
2020/12/20 03:54:07;;;;;;;3.05;1.80;;;9.30;91.70;;;;;;2057156;28;20074;-81
2020/12/20 03:55:07;;;;;;;3.83;1.55;;;9.30;91.70;;;;;;2057233;28;20030;-81
2020/12/20 03:56:08;;;;;;;3.30;1.50;;;9.30;91.70;;;;;;2049304;28;20474;-81
2020/12/20 03:57:09;;;;;;;3.33;1.42;;;9.30;91.70;;;;;;2048207;28;20031;-81
2020/12/20 03:58:10;;;;;;;3.35;1.67;;;9.30;91.70;;;;;;2049337;28;20027;-81
2020/12/20 03:59:10;;;;;;;2.33;1.40;;;9.30;91.70;;;;;;2055484;28;20031;-80
2020/12/20 04:00:11;;;;;;;3.92;1.60;;;9.20;91.70;;;;;;2040922;28;20019;-81
2020/12/20 04:01:12;;;;;;;3.92;1.63;;;9.20;91.70;;;;;;2035623;29;20032;-80
2020/12/20 04:02:12;;;;;;;2.72;1.50;;;9.30;91.70;;;;;;2046847;28;20031;-80
2020/12/20 04:03:13;;;;;;;4.80;1.80;;;9.30;91.70;;;;;;2049070;29;20042;-80
2020/12/20 04:04:13;;;;;;;3.65;1.50;;;9.20;91.70;;;;;;2040896;29;20119;-80
2020/12/20 04:05:14;;;;;;;3.03;1.52;;;9.20;91.70;;;;;;2048196;29;20509;-80
2020/12/20 04:06:17;;;;;;;4.63;1.63;;;9.30;91.70;;;;;;2056048;28;20034;-81
2020/12/20 04:07:17;;;;;;;2.92;1.40;;;9.30;91.70;;;;;;2056881;28;20039;-80
2020/12/20 04:08:18;;;;;;;3.97;1.65;;;9.20;91.70;;;;;;2057204;28;20502;-80
2020/12/20 04:09:18;;;;;;;3.25;1.65;;;9.20;91.70;;;;;;2049043;28;20493;-80
2020/12/20 04:10:19;;;;;;;3.42;1.52;;;9.30;91.70;;;;;;2052756;28;20131;-80
2020/12/20 04:11:20;;;;;;;5.30;1.80;;;9.30;91.70;;;;;;2055658;28;20045;-80
2020/12/20 04:12:20;;;;;;;3.63;1.48;;;9.30;91.70;;;;;;2057107;28;20493;-80
2020/12/20 04:13:22;;;;;;;3.88;1.63;;;9.30;91.70;;;;;;2049278;28;20051;-79
2020/12/20 04:14:23;;;;;;;4.20;1.40;;;9.30;91.70;;;;;;2051820;28;20158;-79
2020/12/20 04:15:23;;;;;;;4.18;1.50;;;9.30;91.70;;;;;;2053860;28;20490;-80
2020/12/20 04:16:24;;;;;;;4.10;1.50;;;9.30;91.70;;;;;;2048968;28;20524;-80
2020/12/20 04:17:25;;;;;;;3.92;1.60;;;9.30;91.70;;;;;;2049465;28;20039;-80
2020/12/20 04:18:25;;;;;;;2.80;1.70;;;9.30;91.70;;;;;;2057092;28;20491;-80
2020/12/20 04:19:26;;;;;;;2.97;1.58;;;9.30;92.00;;;;;;2057285;28;20034;-80
2020/12/20 04:20:26;;;;;;;4.60;1.80;;;9.30;91.70;;;;;;2050863;28;20595;-80
2020/12/20 04:21:27;;;;;;;3.38;1.48;;;9.30;91.70;;;;;;2056317;28;20381;-80
2020/12/20 04:22:27;;;;;;;3.17;1.20;;;9.30;91.70;;;;;;2049364;28;20042;-80
2020/12/20 04:23:28;;;;;;;3.60;1.33;;;9.30;91.70;;;;;;2048258;29;20489;-80
2020/12/20 04:24:29;;;;;;;3.50;1.27;;;9.30;91.70;;;;;;2052870;28;20032;-80
2020/12/20 04:25:29;;;;;;;3.63;1.45;;;9.30;92.00;;;;;;2056631;28;20480;-80
2020/12/20 04:26:30;;;;;;;2.97;1.63;;;9.30;91.70;;;;;;2049569;28;20035;-80
2020/12/20 04:27:31;;;;;;;2.55;1.30;;;9.20;91.70;;;;;;2047884;28;20054;-80
2020/12/20 04:28:31;;;;;;;3.92;1.40;;;9.30;91.70;;;;;;2048980;28;20027;-80
2020/12/20 04:29:32;;;;;;;2.75;1.48;;;9.30;91.70;;;;;;2044622;29;20517;-80
2020/12/20 04:30:33;;;;;;;4.07;1.42;;;9.20;91.70;;;;;;2047568;28;20083;-80
2020/12/20 04:31:33;;;;;;;5.68;1.58;;;9.30;91.70;;;;;;2054467;28;20057;-80
2020/12/20 04:32:34;;;;;;;3.92;1.40;;;9.20;91.70;;;;;;2056736;28;20031;-80
2020/12/20 04:33:39;;;;;;;4.07;1.33;;;9.20;91.70;;;;;;2056647;28;20047;-80
2020/12/20 04:34:40;;;;;;;3.65;1.42;;;9.30;91.70;;;;;;2048903;28;20039;-79
2020/12/20 04:35:41;;;;;;;4.18;1.50;;;9.20;91.70;;;;;;2049103;28;20037;-80
2020/12/20 04:36:41;;;;;;;4.88;1.70;;;9.30;91.70;;;;;;2057007;28;20035;-80
2020/12/20 04:37:42;;;;;;;3.65;1.50;;;9.30;91.70;;;;;;2056740;28;20453;-80
2020/12/20 04:38:42;;;;;;;4.00;1.40;;;9.30;91.70;;;;;;2055657;28;20034;-80
2020/12/20 04:39:43;;;;;;;2.85;1.45;;;9.20;91.70;;;;;;2049372;28;20525;-80
2020/12/20 04:40:44;;;;;;;1.98;1.17;;;9.20;91.70;;;;;;2051101;28;20090;-80
2020/12/20 04:41:45;;;;;;;3.50;1.55;;;9.20;91.70;;;;;;2055660;28;20520;-80
2020/12/20 04:42:45;;;;;;;3.55;1.30;;;9.20;91.70;;;;;;2056717;28;20034;-80
2020/12/20 04:43:47;;;;;;;3.78;1.40;;;9.20;91.70;;;;;;2056754;28;20030;-79
2020/12/20 04:44:47;;;;;;;2.20;1.35;;;9.30;91.70;;;;;;2050955;28;20035;-80
2020/12/20 04:45:52;;;;;;;3.35;1.30;;;9.20;91.70;;;;;;2057408;28;20481;-79
2020/12/20 04:46:55;;;;;;;4.90;1.60;;;9.30;91.70;;;;;;2057440;28;20058;-80
2020/12/20 04:47:57;;;;;;;4.75;1.63;;;9.20;91.70;;;;;;2057393;28;20061;-80
2020/12/20 04:49:00;;;;;;;2.95;1.20;;;9.30;91.70;;;;;;2056544;28;20057;-79
2020/12/20 04:50:01;;;;;;;4.45;1.40;;;9.20;91.70;;;;;;2057138;28;20033;-80
2020/12/20 04:51:03;;;;;;;2.88;1.48;;;9.30;91.70;;;;;;2049725;28;20074;-80
2020/12/20 04:52:06;;;;;;;3.22;1.55;;;9.30;91.70;;;;;;2052340;28;20022;-80
2020/12/20 04:53:07;;;;;;;4.70;1.42;;;9.20;91.70;;;;;;2048627;28;20087;-80
2020/12/20 04:54:09;;;;;;;2.72;1.52;;;9.20;91.70;;;;;;2048909;28;20101;-80
2020/12/20 04:55:11;;;;;;;3.05;1.45;;;9.30;91.70;;;;;;2053100;28;20493;-80
2020/12/20 04:56:12;;;;;;;3.53;1.13;;;9.20;91.70;;;;;;2056747;28;20117;-80
2020/12/20 04:57:15;;;;;;;2.65;1.25;;;9.20;91.70;;;;;;2064122;28;20521;-80
2020/12/20 04:58:16;;;;;;;2.45;1.40;;;9.20;91.70;;;;;;2049555;28;20023;-80
2020/12/20 04:59:17;;;;;;;2.90;1.23;;;9.20;91.80;;;;;;2054454;28;20050;-80
2020/12/20 05:00:20;;;;;;;2.90;1.17;;;9.20;91.70;;;;;;2053675;28;20133;-79
2020/12/20 05:01:21;;;;;;;4.78;1.63;;;9.30;91.70;;;;;;2049120;28;20027;-80
2020/12/20 05:02:21;;;;;;;3.15;1.23;;;9.20;91.70;;;;;;2054899;28;20082;-80
2020/12/20 05:03:22;;;;;;;4.93;1.55;;;9.20;91.70;;;;;;2052849;28;20513;-79
2020/12/20 05:04:22;;;;;;;3.28;1.13;;;9.20;91.70;;;;;;2049268;28;20027;-79
2020/12/20 05:05:23;;;;;;;2.47;1.30;;;9.20;91.70;;;;;;2056457;28;20053;-80
2020/12/20 05:06:27;;;;;;;3.42;1.40;;;9.20;91.70;;;;;;2057230;28;20374;-79
2020/12/20 05:07:27;;;;;;;3.45;1.60;;;9.20;91.70;;;;;;2056373;28;20058;-79
2020/12/20 05:08:28;;;;;;;3.83;1.40;;;9.20;91.70;;;;;;2047754;28;20027;-79
2020/12/20 05:09:29;;;;;;;3.55;1.30;;;9.20;91.70;;;;;;2048754;28;20573;-80
2020/12/20 05:10:40;;;;;;;3.30;1.25;;;9.20;91.70;;;;;;2052741;28;20031;-79
2020/12/20 05:11:43;;;;;;;;;;;9.20;91.70;;;;;;2052565;28;20035;-80
2020/12/20 05:12:44;;;;;;;2.95;1.30;;;9.20;91.70;;;;;;2057667;28;20308;-80
2020/12/20 05:13:45;;;;;;;4.57;1.20;;;9.20;91.70;;;;;;2048411;29;20062;-80
2020/12/20 05:14:45;;;;;;;2.60;1.17;;;9.20;91.70;;;;;;2049547;28;20031;-80
2020/12/20 05:15:46;;;;;;;2.97;1.30;;;9.20;91.70;;;;;;2048217;28;20061;-80
2020/12/20 05:16:47;;;;;;;3.75;1.40;;;9.20;91.70;;;;;;2048704;28;20474;-80
2020/12/20 05:17:47;;;;;;;2.53;1.10;;;9.20;91.70;;;;;;2049921;28;20498;-80
2020/12/20 05:18:48;;;;;;;3.15;1.40;;;9.20;91.70;;;;;;2054831;28;20034;-80
2020/12/20 05:19:49;;;;;;;3.83;1.40;;;9.20;91.70;;;;;;2056172;28;20031;-80
2020/12/20 05:20:50;;;;;;;2.90;1.25;;;9.20;91.70;;;;;;2048357;28;20082;-80
2020/12/20 05:21:51;;;;;;;2.22;1.10;;;9.20;91.70;;;;;;2051270;28;20034;-80